sensor_id;sensor_type;location;lat;lon;timestamp;pressure;altitude;pressure_sealevel;temperature;humidity
80988;BME280;70452;39.386;-3.210;2023-07-29T00:00:27;94092.03;;;26.16;18.36
80988;BME280;70452;39.386;-3.210;2023-07-29T00:03:01;94092.78;;;26.10;18.00
80988;BME280;70452;39.386;-3.210;2023-07-29T00:05:49;94083.97;;;26.08;18.10
80988;BME280;70452;39.386;-3.210;2023-07-29T00:08:20;94091.97;;;26.09;18.24
80988;BME280;70452;39.386;-3.210;2023-07-29T00:10:54;94085.16;;;26.03;18.16
80988;BME280;70452;39.386;-3.210;2023-07-29T00:13:35;94088.28;;;25.98;18.17
80988;BME280;70452;39.386;-3.210;2023-07-29T00:16:11;94085.88;;;25.96;18.21
80988;BME280;70452;39.386;-3.210;2023-07-29T00:18:45;94089.47;;;25.97;18.22
80988;BME280;70452;39.386;-3.210;2023-07-29T00:21:26;94092.66;;;25.99;18.53
80988;BME280;70452;39.386;-3.210;2023-07-29T00:23:52;94091.09;;;25.98;18.29
80988;BME280;70452;39.386;-3.210;2023-07-29T00:26:32;94092.19;;;25.93;18.41
80988;BME280;70452;39.386;-3.210;2023-07-29T00:29:16;94097.38;;;25.91;18.74
80988;BME280;70452;39.386;-3.210;2023-07-29T00:31:45;94096.50;;;25.87;18.50
80988;BME280;70452;39.386;-3.210;2023-07-29T00:34:21;94090.44;;;25.78;19.11
80988;BME280;70452;39.386;-3.210;2023-07-29T00:36:56;94097.16;;;25.73;19.49
80988;BME280;70452;39.386;-3.210;2023-07-29T00:39:37;94097.84;;;25.63;19.61
80988;BME280;70452;39.386;-3.210;2023-07-29T00:42:24;94092.97;;;25.53;19.57
80988;BME280;70452;39.386;-3.210;2023-07-29T00:45:01;94098.00;;;25.40;19.70
80988;BME280;70452;39.386;-3.210;2023-07-29T00:47:43;94089.00;;;25.23;20.02
80988;BME280;70452;39.386;-3.210;2023-07-29T00:50:15;94087.72;;;25.14;20.31
80988;BME280;70452;39.386;-3.210;2023-07-29T00:52:55;94096.44;;;25.12;20.03
80988;BME280;70452;39.386;-3.210;2023-07-29T00:55:28;94093.63;;;25.08;20.21
80988;BME280;70452;39.386;-3.210;2023-07-29T00:58:02;94089.97;;;25.04;20.84
80988;BME280;70452;39.386;-3.210;2023-07-29T01:04:00;94086.75;;;25.02;20.30
80988;BME280;70452;39.386;-3.210;2023-07-29T01:16:21;94094.19;;;24.91;20.34
80988;BME280;70452;39.386;-3.210;2023-07-29T01:19:04;94094.94;;;24.88;20.20
80988;BME280;70452;39.386;-3.210;2023-07-29T01:21:35;94095.69;;;24.85;20.57
80988;BME280;70452;39.386;-3.210;2023-07-29T01:24:16;94100.09;;;24.86;20.67
80988;BME280;70452;39.386;-3.210;2023-07-29T01:26:48;94101.25;;;24.85;21.07
80988;BME280;70452;39.386;-3.210;2023-07-29T01:29:17;94097.88;;;24.99;21.45
80988;BME280;70452;39.386;-3.210;2023-07-29T01:32:09;94101.34;;;24.92;21.04
80988;BME280;70452;39.386;-3.210;2023-07-29T01:35:03;94105.34;;;24.91;20.79
80988;BME280;70452;39.386;-3.210;2023-07-29T01:37:46;94097.84;;;24.68;20.69
80988;BME280;70452;39.386;-3.210;2023-07-29T01:40:21;94097.56;;;24.50;20.15
80988;BME280;70452;39.386;-3.210;2023-07-29T01:42:50;94093.19;;;24.26;20.95
80988;BME280;70452;39.386;-3.210;2023-07-29T01:45:26;94096.06;;;24.07;21.22
80988;BME280;70452;39.386;-3.210;2023-07-29T01:48:07;94097.25;;;24.06;21.06
80988;BME280;70452;39.386;-3.210;2023-07-29T01:50:47;94093.91;;;23.96;21.79
80988;BME280;70452;39.386;-3.210;2023-07-29T01:53:18;94101.13;;;24.01;21.21
80988;BME280;70452;39.386;-3.210;2023-07-29T01:55:51;94095.06;;;23.95;21.06
80988;BME280;70452;39.386;-3.210;2023-07-29T01:58:28;94092.97;;;23.89;20.88
80988;BME280;70452;39.386;-3.210;2023-07-29T02:01:12;94086.97;;;23.87;21.27
80988;BME280;70452;39.386;-3.210;2023-07-29T02:03:52;94093.19;;;23.80;20.95
80988;BME280;70452;39.386;-3.210;2023-07-29T02:06:33;94093.88;;;23.73;21.05
80988;BME280;70452;39.386;-3.210;2023-07-29T02:09:17;94088.84;;;23.59;21.63
80988;BME280;70452;39.386;-3.210;2023-07-29T02:11:50;94094.03;;;23.61;21.85
80988;BME280;70452;39.386;-3.210;2023-07-29T02:14:27;94102.50;;;23.68;22.36
80988;BME280;70452;39.386;-3.210;2023-07-29T02:17:04;94095.03;;;23.72;22.63
80988;BME280;70452;39.386;-3.210;2023-07-29T02:19:35;94088.50;;;23.84;22.50
80988;BME280;70452;39.386;-3.210;2023-07-29T02:22:25;94089.09;;;23.93;22.63
80988;BME280;70452;39.386;-3.210;2023-07-29T02:27:46;94080.38;;;23.75;22.60
80988;BME280;70452;39.386;-3.210;2023-07-29T02:30:21;94090.72;;;23.75;22.80
80988;BME280;70452;39.386;-3.210;2023-07-29T02:33:03;94086.25;;;23.70;22.82
80988;BME280;70452;39.386;-3.210;2023-07-29T02:35:38;94093.44;;;23.71;22.88
80988;BME280;70452;39.386;-3.210;2023-07-29T02:38:30;94099.72;;;23.68;23.05
80988;BME280;70452;39.386;-3.210;2023-07-29T02:41:05;94099.34;;;23.70;23.15
80988;BME280;70452;39.386;-3.210;2023-07-29T02:43:41;94101.41;;;23.73;23.58
80988;BME280;70452;39.386;-3.210;2023-07-29T02:46:19;94097.22;;;23.83;23.10
80988;BME280;70452;39.386;-3.210;2023-07-29T02:49:13;94100.84;;;23.83;23.01
80988;BME280;70452;39.386;-3.210;2023-07-29T02:51:49;94087.63;;;23.80;23.20
80988;BME280;70452;39.386;-3.210;2023-07-29T02:54:32;94103.38;;;23.72;22.89
80988;BME280;70452;39.386;-3.210;2023-07-29T02:57:03;94101.59;;;23.61;23.21
80988;BME280;70452;39.386;-3.210;2023-07-29T02:59:35;94099.53;;;23.57;23.61
80988;BME280;70452;39.386;-3.210;2023-07-29T03:02:11;94094.78;;;23.58;23.27
80988;BME280;70452;39.386;-3.210;2023-07-29T03:04:54;94095.44;;;23.51;23.24
80988;BME280;70452;39.386;-3.210;2023-07-29T03:07:28;94093.19;;;23.57;23.94
80988;BME280;70452;39.386;-3.210;2023-07-29T03:09:57;94092.00;;;23.58;23.45
80988;BME280;70452;39.386;-3.210;2023-07-29T03:12:32;94092.41;;;23.60;23.82
80988;BME280;70452;39.386;-3.210;2023-07-29T03:15:08;94093.31;;;23.45;23.54
80988;BME280;70452;39.386;-3.210;2023-07-29T03:17:45;94090.59;;;23.48;24.08
80988;BME280;70452;39.386;-3.210;2023-07-29T03:20:19;94085.94;;;23.52;24.22
80988;BME280;70452;39.386;-3.210;2023-07-29T03:23:06;94085.66;;;23.38;23.81
80988;BME280;70452;39.386;-3.210;2023-07-29T03:25:41;94088.53;;;23.22;24.09
80988;BME280;70452;39.386;-3.210;2023-07-29T03:28:11;94085.81;;;23.26;24.63
80988;BME280;70452;39.386;-3.210;2023-07-29T03:30:43;94082.53;;;23.20;24.40
80988;BME280;70452;39.386;-3.210;2023-07-29T03:33:18;94081.59;;;23.12;24.61
80988;BME280;70452;39.386;-3.210;2023-07-29T03:35:57;94083.97;;;23.14;24.37
80988;BME280;70452;39.386;-3.210;2023-07-29T03:38:29;94080.97;;;23.03;24.18
80988;BME280;70452;39.386;-3.210;2023-07-29T03:41:04;94089.28;;;23.03;24.70
80988;BME280;70452;39.386;-3.210;2023-07-29T03:43:38;94087.91;;;22.93;24.70
80988;BME280;70452;39.386;-3.210;2023-07-29T03:46:12;94083.53;;;22.92;25.11
80988;BME280;70452;39.386;-3.210;2023-07-29T03:48:50;94084.28;;;23.09;24.44
80988;BME280;70452;39.386;-3.210;2023-07-29T03:51:26;94075.75;;;23.17;25.01
80988;BME280;70452;39.386;-3.210;2023-07-29T03:53:57;94078.94;;;23.19;24.74
80988;BME280;70452;39.386;-3.210;2023-07-29T03:56:38;94088.13;;;23.04;24.47
80988;BME280;70452;39.386;-3.210;2023-07-29T03:59:23;94088.00;;;22.97;24.39
80988;BME280;70452;39.386;-3.210;2023-07-29T04:02:00;94092.50;;;22.85;24.30
80988;BME280;70452;39.386;-3.210;2023-07-29T04:04:45;94084.75;;;22.75;25.35
80988;BME280;70452;39.386;-3.210;2023-07-29T04:07:14;94086.13;;;22.65;24.96
80988;BME280;70452;39.386;-3.210;2023-07-29T04:09:49;94093.84;;;22.56;25.06
80988;BME280;70452;39.386;-3.210;2023-07-29T04:12:24;94087.59;;;22.43;25.47
80988;BME280;70452;39.386;-3.210;2023-07-29T04:14:59;94089.06;;;22.37;25.52
80988;BME280;70452;39.386;-3.210;2023-07-29T04:17:40;94091.75;;;22.34;25.87
80988;BME280;70452;39.386;-3.210;2023-07-29T04:20:12;94096.28;;;22.26;25.73
80988;BME280;70452;39.386;-3.210;2023-07-29T04:26:06;94098.53;;;22.20;26.23
80988;BME280;70452;39.386;-3.210;2023-07-29T04:28:37;94108.69;;;22.28;26.62
80988;BME280;70452;39.386;-3.210;2023-07-29T04:31:06;94097.22;;;22.30;26.64
80988;BME280;70452;39.386;-3.210;2023-07-29T04:33:44;94099.88;;;22.10;26.60
80988;BME280;70452;39.386;-3.210;2023-07-29T04:36:32;94091.66;;;21.82;27.19
80988;BME280;70452;39.386;-3.210;2023-07-29T04:39:12;94097.22;;;21.82;27.55
80988;BME280;70452;39.386;-3.210;2023-07-29T04:41:51;94099.09;;;21.78;27.48
80988;BME280;70452;39.386;-3.210;2023-07-29T04:44:40;94102.94;;;21.73;27.51
80988;BME280;70452;39.386;-3.210;2023-07-29T04:47:19;94103.53;;;21.67;27.74
80988;BME280;70452;39.386;-3.210;2023-07-29T04:49:55;94111.13;;;21.54;28.02
80988;BME280;70452;39.386;-3.210;2023-07-29T04:52:27;94103.44;;;21.35;28.41
80988;BME280;70452;39.386;-3.210;2023-07-29T04:55:12;94101.66;;;21.27;28.40
80988;BME280;70452;39.386;-3.210;2023-07-29T04:57:52;94105.69;;;21.29;28.61
80988;BME280;70452;39.386;-3.210;2023-07-29T05:00:30;94111.75;;;21.35;28.54
80988;BME280;70452;39.386;-3.210;2023-07-29T05:03:12;94110.72;;;21.40;28.42
80988;BME280;70452;39.386;-3.210;2023-07-29T05:05:46;94113.03;;;21.38;28.63
80988;BME280;70452;39.386;-3.210;2023-07-29T05:11:18;94119.09;;;21.27;28.71
80988;BME280;70452;39.386;-3.210;2023-07-29T05:14:05;94125.31;;;21.24;28.76
80988;BME280;70452;39.386;-3.210;2023-07-29T05:16:43;94124.25;;;21.01;29.16
80988;BME280;70452;39.386;-3.210;2023-07-29T05:19:25;94116.03;;;21.16;29.31
80988;BME280;70452;39.386;-3.210;2023-07-29T05:22:05;94125.63;;;21.47;28.51
80988;BME280;70452;39.386;-3.210;2023-07-29T05:25:16;94133.09;;;21.91;28.12
80988;BME280;70452;39.386;-3.210;2023-07-29T05:27:42;94133.16;;;22.10;27.56
80988;BME280;70452;39.386;-3.210;2023-07-29T05:30:18;94133.63;;;22.44;27.27
80988;BME280;70452;39.386;-3.210;2023-07-29T05:32:48;94135.31;;;22.84;26.99
80988;BME280;70452;39.386;-3.210;2023-07-29T05:38:21;94144.38;;;23.56;25.51
80988;BME280;70452;39.386;-3.210;2023-07-29T05:41:01;94141.66;;;23.99;25.29
80988;BME280;70452;39.386;-3.210;2023-07-29T05:44:09;94140.63;;;24.57;24.15
80988;BME280;70452;39.386;-3.210;2023-07-29T05:46:37;94137.75;;;24.76;23.76
80988;BME280;70452;39.386;-3.210;2023-07-29T05:49:16;94142.09;;;25.00;23.23
80988;BME280;70452;39.386;-3.210;2023-07-29T05:51:45;94147.28;;;25.32;22.85
80988;BME280;70452;39.386;-3.210;2023-07-29T05:54:27;94148.59;;;25.72;22.86
80988;BME280;70452;39.386;-3.210;2023-07-29T05:57:11;94152.72;;;25.86;22.34
80988;BME280;70452;39.386;-3.210;2023-07-29T05:59:44;94159.34;;;26.52;22.46
80988;BME280;70452;39.386;-3.210;2023-07-29T06:02:47;94155.06;;;26.62;20.91
80988;BME280;70452;39.386;-3.210;2023-07-29T06:05:27;94163.69;;;26.91;20.60
80988;BME280;70452;39.386;-3.210;2023-07-29T06:11:13;94168.72;;;27.30;20.28
80988;BME280;70452;39.386;-3.210;2023-07-29T06:13:49;94178.03;;;27.52;20.16
80988;BME280;70452;39.386;-3.210;2023-07-29T06:16:32;94181.28;;;27.58;20.18
80988;BME280;70452;39.386;-3.210;2023-07-29T06:19:11;94190.88;;;27.67;19.73
80988;BME280;70452;39.386;-3.210;2023-07-29T06:21:58;94193.38;;;27.87;19.56
80988;BME280;70452;39.386;-3.210;2023-07-29T06:28:03;94199.94;;;28.34;18.96
80988;BME280;70452;39.386;-3.210;2023-07-29T06:30:44;94199.97;;;28.52;18.56
80988;BME280;70452;39.386;-3.210;2023-07-29T06:36:20;94198.00;;;28.89;17.94
80988;BME280;70452;39.386;-3.210;2023-07-29T06:39:26;94203.59;;;28.74;17.98
80988;BME280;70452;39.386;-3.210;2023-07-29T06:42:03;94203.59;;;28.67;18.09
80988;BME280;70452;39.386;-3.210;2023-07-29T06:44:49;94204.00;;;28.76;17.98
80988;BME280;70452;39.386;-3.210;2023-07-29T06:47:30;94205.59;;;28.99;18.30
80988;BME280;70452;39.386;-3.210;2023-07-29T06:50:08;94202.78;;;29.21;17.75
80988;BME280;70452;39.386;-3.210;2023-07-29T06:53:04;94200.81;;;28.82;17.72
80988;BME280;70452;39.386;-3.210;2023-07-29T06:55:36;94202.38;;;29.26;17.64
80988;BME280;70452;39.386;-3.210;2023-07-29T06:58:52;94203.16;;;29.44;17.33
80988;BME280;70452;39.386;-3.210;2023-07-29T07:01:30;94207.97;;;29.44;17.42
80988;BME280;70452;39.386;-3.210;2023-07-29T07:04:02;94209.63;;;28.91;17.97
80988;BME280;70452;39.386;-3.210;2023-07-29T07:06:40;94212.38;;;29.38;17.22
80988;BME280;70452;39.386;-3.210;2023-07-29T07:12:33;94224.78;;;29.51;17.25
80988;BME280;70452;39.386;-3.210;2023-07-29T07:15:16;94221.63;;;29.27;17.46
80988;BME280;70452;39.386;-3.210;2023-07-29T07:18:05;94224.72;;;29.69;17.24
80988;BME280;70452;39.386;-3.210;2023-07-29T07:21:00;94226.38;;;29.63;16.95
80988;BME280;70452;39.386;-3.210;2023-07-29T07:23:43;94234.00;;;29.62;17.07
80988;BME280;70452;39.386;-3.210;2023-07-29T07:26:18;94228.25;;;30.09;16.60
80988;BME280;70452;39.386;-3.210;2023-07-29T07:29:14;94232.63;;;30.14;16.44
80988;BME280;70452;39.386;-3.210;2023-07-29T07:32:00;94241.19;;;29.85;17.03
80988;BME280;70452;39.386;-3.210;2023-07-29T07:35:02;94231.84;;;30.06;16.85
80988;BME280;70452;39.386;-3.210;2023-07-29T07:37:47;94247.50;;;30.03;16.84
80988;BME280;70452;39.386;-3.210;2023-07-29T07:40:30;94238.53;;;30.34;16.29
80988;BME280;70452;39.386;-3.210;2023-07-29T07:43:02;94236.34;;;30.70;16.02
80988;BME280;70452;39.386;-3.210;2023-07-29T07:46:20;94243.50;;;30.82;15.86
80988;BME280;70452;39.386;-3.210;2023-07-29T07:48:59;94233.91;;;30.76;16.06
80988;BME280;70452;39.386;-3.210;2023-07-29T07:51:47;94236.72;;;31.28;15.47
80988;BME280;70452;39.386;-3.210;2023-07-29T07:57:23;94242.63;;;31.41;15.47
80988;BME280;70452;39.386;-3.210;2023-07-29T08:00:13;94248.28;;;31.41;15.24
80988;BME280;70452;39.386;-3.210;2023-07-29T08:02:51;94244.72;;;31.33;15.38
80988;BME280;70452;39.386;-3.210;2023-07-29T08:05:32;94248.13;;;31.59;15.08
80988;BME280;70452;39.386;-3.210;2023-07-29T08:08:00;94242.56;;;31.52;15.20
80988;BME280;70452;39.386;-3.210;2023-07-29T08:10:53;94234.34;;;32.03;15.05
80988;BME280;70452;39.386;-3.210;2023-07-29T08:13:35;94241.56;;;32.07;14.70
80988;BME280;70452;39.386;-3.210;2023-07-29T08:16:21;94239.78;;;32.21;14.61
80988;BME280;70452;39.386;-3.210;2023-07-29T08:18:56;94240.88;;;32.30;14.62
80988;BME280;70452;39.386;-3.210;2023-07-29T08:21:31;94239.06;;;32.13;14.26
80988;BME280;70452;39.386;-3.210;2023-07-29T08:24:09;94234.91;;;32.25;14.24
80988;BME280;70452;39.386;-3.210;2023-07-29T08:26:49;94233.22;;;32.31;14.29
80988;BME280;70452;39.386;-3.210;2023-07-29T08:29:35;94233.78;;;32.49;13.97
80988;BME280;70452;39.386;-3.210;2023-07-29T08:32:24;94239.91;;;32.71;13.97
80988;BME280;70452;39.386;-3.210;2023-07-29T08:34:59;94240.47;;;32.90;13.84
80988;BME280;70452;39.386;-3.210;2023-07-29T08:37:47;94237.06;;;32.75;14.09
80988;BME280;70452;39.386;-3.210;2023-07-29T08:40:35;94238.28;;;33.01;13.98
80988;BME280;70452;39.386;-3.210;2023-07-29T08:43:09;94235.88;;;33.27;13.29
80988;BME280;70452;39.386;-3.210;2023-07-29T08:45:55;94243.72;;;33.39;13.17
80988;BME280;70452;39.386;-3.210;2023-07-29T08:48:47;94241.81;;;33.56;13.14
80988;BME280;70452;39.386;-3.210;2023-07-29T08:51:27;94239.22;;;33.66;13.13
80988;BME280;70452;39.386;-3.210;2023-07-29T08:53:56;94235.28;;;33.83;13.03
80988;BME280;70452;39.386;-3.210;2023-07-29T08:57:02;94236.22;;;33.96;12.51
80988;BME280;70452;39.386;-3.210;2023-07-29T08:59:37;94237.66;;;33.85;12.92
80988;BME280;70452;39.386;-3.210;2023-07-29T09:02:32;94233.28;;;34.44;11.96
80988;BME280;70452;39.386;-3.210;2023-07-29T09:05:13;94231.34;;;34.77;12.08
80988;BME280;70452;39.386;-3.210;2023-07-29T09:07:50;94233.28;;;34.24;11.96
80988;BME280;70452;39.386;-3.210;2023-07-29T09:13:32;94233.19;;;33.63;12.83
80988;BME280;70452;39.386;-3.210;2023-07-29T09:16:36;94232.28;;;33.23;13.57
80988;BME280;70452;39.386;-3.210;2023-07-29T09:19:08;94233.56;;;33.66;13.00
80988;BME280;70452;39.386;-3.210;2023-07-29T09:21:52;94236.28;;;33.73;13.31
80988;BME280;70452;39.386;-3.210;2023-07-29T09:24:27;94237.88;;;33.50;13.32
80988;BME280;70452;39.386;-3.210;2023-07-29T09:27:56;94221.97;;;33.84;12.86
80988;BME280;70452;39.386;-3.210;2023-07-29T09:30:32;94230.13;;;33.78;13.12
80988;BME280;70452;39.386;-3.210;2023-07-29T09:33:02;94226.09;;;34.19;12.86
80988;BME280;70452;39.386;-3.210;2023-07-29T09:35:34;94219.44;;;33.89;12.98
80988;BME280;70452;39.386;-3.210;2023-07-29T09:38:06;94227.69;;;33.33;13.60
80988;BME280;70452;39.386;-3.210;2023-07-29T09:43:31;94222.09;;;33.76;13.33
80988;BME280;70452;39.386;-3.210;2023-07-29T09:46:39;94219.66;;;34.38;12.78
80988;BME280;70452;39.386;-3.210;2023-07-29T09:49:24;94211.47;;;34.24;12.97
80988;BME280;70452;39.386;-3.210;2023-07-29T09:52:25;94207.53;;;34.38;12.88
80988;BME280;70452;39.386;-3.210;2023-07-29T09:54:58;94208.72;;;34.21;13.31
80988;BME280;70452;39.386;-3.210;2023-07-29T09:57:35;94216.88;;;34.35;12.73
80988;BME280;70452;39.386;-3.210;2023-07-29T10:00:35;94214.47;;;34.90;12.34
80988;BME280;70452;39.386;-3.210;2023-07-29T10:03:14;94213.00;;;33.89;13.08
80988;BME280;70452;39.386;-3.210;2023-07-29T10:05:44;94215.09;;;34.25;12.88
80988;BME280;70452;39.386;-3.210;2023-07-29T10:08:26;94217.13;;;34.81;12.50
80988;BME280;70452;39.386;-3.210;2023-07-29T10:11:20;94210.22;;;34.98;12.58
80988;BME280;70452;39.386;-3.210;2023-07-29T10:13:50;94207.97;;;34.16;13.04
80988;BME280;70452;39.386;-3.210;2023-07-29T10:16:19;94206.31;;;34.75;12.77
80988;BME280;70452;39.386;-3.210;2023-07-29T10:18:59;94215.75;;;35.22;12.41
80988;BME280;70452;39.386;-3.210;2023-07-29T10:21:31;94216.31;;;34.97;12.33
80988;BME280;70452;39.386;-3.210;2023-07-29T10:24:22;94207.41;;;35.31;11.84
80988;BME280;70452;39.386;-3.210;2023-07-29T10:27:09;94207.13;;;34.76;12.39
80988;BME280;70452;39.386;-3.210;2023-07-29T10:29:59;94196.44;;;35.17;12.12
80988;BME280;70452;39.386;-3.210;2023-07-29T10:32:28;94205.56;;;35.24;11.81
80988;BME280;70452;39.386;-3.210;2023-07-29T10:35:01;94198.56;;;35.12;12.05
80988;BME280;70452;39.386;-3.210;2023-07-29T10:37:48;94195.06;;;35.71;11.80
80988;BME280;70452;39.386;-3.210;2023-07-29T10:40:23;94196.31;;;35.70;11.60
80988;BME280;70452;39.386;-3.210;2023-07-29T10:43:12;94202.63;;;35.61;11.38
80988;BME280;70452;39.386;-3.210;2023-07-29T10:48:43;94204.28;;;35.75;12.06
80988;BME280;70452;39.386;-3.210;2023-07-29T10:51:38;94198.84;;;35.97;11.72
80988;BME280;70452;39.386;-3.210;2023-07-29T10:54:23;94195.16;;;35.83;11.66
80988;BME280;70452;39.386;-3.210;2023-07-29T10:57:00;94202.06;;;35.66;12.17
80988;BME280;70452;39.386;-3.210;2023-07-29T10:59:54;94190.88;;;34.97;12.19
80988;BME280;70452;39.386;-3.210;2023-07-29T11:03:01;94199.16;;;35.70;12.45
80988;BME280;70452;39.386;-3.210;2023-07-29T11:05:54;94196.72;;;35.84;11.81
80988;BME280;70452;39.386;-3.210;2023-07-29T11:08:33;94196.19;;;35.90;11.88
80988;BME280;70452;39.386;-3.210;2023-07-29T11:13:34;94191.69;;;35.76;11.74
80988;BME280;70452;39.386;-3.210;2023-07-29T11:16:06;94188.16;;;35.88;12.36
80988;BME280;70452;39.386;-3.210;2023-07-29T11:18:41;94181.53;;;36.20;11.71
80988;BME280;70452;39.386;-3.210;2023-07-29T11:21:31;94175.53;;;35.60;11.91
80988;BME280;70452;39.386;-3.210;2023-07-29T11:23:58;94181.94;;;36.22;11.67
80988;BME280;70452;39.386;-3.210;2023-07-29T11:26:36;94178.47;;;36.15;12.13
80988;BME280;70452;39.386;-3.210;2023-07-29T11:29:19;94170.84;;;35.99;12.43
80988;BME280;70452;39.386;-3.210;2023-07-29T11:31:51;94180.19;;;36.80;11.64
80988;BME280;70452;39.386;-3.210;2023-07-29T11:34:36;94175.31;;;36.93;11.97
80988;BME280;70452;39.386;-3.210;2023-07-29T11:37:12;94163.25;;;36.89;11.41
80988;BME280;70452;39.386;-3.210;2023-07-29T11:39:45;94175.03;;;37.13;11.77
80988;BME280;70452;39.386;-3.210;2023-07-29T11:42:12;94164.53;;;36.88;11.81
80988;BME280;70452;39.386;-3.210;2023-07-29T11:44:39;94172.00;;;37.21;11.82
80988;BME280;70452;39.386;-3.210;2023-07-29T11:47:10;94167.66;;;37.16;11.42
80988;BME280;70452;39.386;-3.210;2023-07-29T11:49:40;94162.25;;;36.83;12.22
80988;BME280;70452;39.386;-3.210;2023-07-29T11:52:07;94159.50;;;36.92;11.90
80988;BME280;70452;39.386;-3.210;2023-07-29T11:54:42;94158.81;;;37.01;11.71
80988;BME280;70452;39.386;-3.210;2023-07-29T11:57:22;94153.00;;;36.28;12.36
80988;BME280;70452;39.386;-3.210;2023-07-29T11:59:54;94159.06;;;36.94;11.79
80988;BME280;70452;39.386;-3.210;2023-07-29T12:02:30;94152.44;;;37.10;12.01
80988;BME280;70452;39.386;-3.210;2023-07-29T12:05:03;94152.09;;;37.33;11.55
80988;BME280;70452;39.386;-3.210;2023-07-29T12:07:35;94146.72;;;37.48;11.26
80988;BME280;70452;39.386;-3.210;2023-07-29T12:10:10;94145.88;;;36.07;12.55
80988;BME280;70452;39.386;-3.210;2023-07-29T12:12:52;94151.31;;;36.94;12.08
80988;BME280;70452;39.386;-3.210;2023-07-29T12:15:43;94145.78;;;36.78;12.06
80988;BME280;70452;39.386;-3.210;2023-07-29T12:18:08;94143.84;;;37.01;11.76
80988;BME280;70452;39.386;-3.210;2023-07-29T12:20:37;94131.38;;;36.47;11.79
80988;BME280;70452;39.386;-3.210;2023-07-29T12:23:07;94130.53;;;35.78;12.43
80988;BME280;70452;39.386;-3.210;2023-07-29T12:25:38;94130.03;;;36.09;12.07
80988;BME280;70452;39.386;-3.210;2023-07-29T12:28:07;94132.03;;;36.38;12.04
80988;BME280;70452;39.386;-3.210;2023-07-29T12:30:47;94125.50;;;37.27;11.34
80988;BME280;70452;39.386;-3.210;2023-07-29T12:33:36;94119.66;;;37.44;11.59
80988;BME280;70452;39.386;-3.210;2023-07-29T12:36:14;94116.75;;;37.34;11.30
80988;BME280;70452;39.386;-3.210;2023-07-29T12:38:46;94110.88;;;37.51;11.07
80988;BME280;70452;39.386;-3.210;2023-07-29T12:41:12;94116.28;;;37.71;11.16
80988;BME280;70452;39.386;-3.210;2023-07-29T12:43:44;94117.00;;;38.28;10.99
80988;BME280;70452;39.386;-3.210;2023-07-29T12:46:10;94113.66;;;38.21;10.63
80988;BME280;70452;39.386;-3.210;2023-07-29T12:48:39;94109.47;;;37.33;11.30
80988;BME280;70452;39.386;-3.210;2023-07-29T12:51:16;94107.78;;;37.36;11.18
80988;BME280;70452;39.386;-3.210;2023-07-29T12:53:45;94101.75;;;37.34;11.47
80988;BME280;70452;39.386;-3.210;2023-07-29T12:56:19;94101.94;;;37.75;10.84
80988;BME280;70452;39.386;-3.210;2023-07-29T12:58:58;94103.72;;;37.24;11.64
80988;BME280;70452;39.386;-3.210;2023-07-29T13:01:28;94095.00;;;37.06;11.44
80988;BME280;70452;39.386;-3.210;2023-07-29T13:04:04;94093.97;;;37.12;11.25
80988;BME280;70452;39.386;-3.210;2023-07-29T13:06:33;94084.06;;;36.44;11.96
80988;BME280;70452;39.386;-3.210;2023-07-29T13:08:59;94091.50;;;36.63;11.78
80988;BME280;70452;39.386;-3.210;2023-07-29T13:11:28;94087.72;;;37.18;11.46
80988;BME280;70452;39.386;-3.210;2023-07-29T13:14:03;94085.19;;;36.72;11.87
80988;BME280;70452;39.386;-3.210;2023-07-29T13:16:38;94087.78;;;37.84;11.34
80988;BME280;70452;39.386;-3.210;2023-07-29T13:19:16;94075.91;;;38.61;10.79
80988;BME280;70452;39.386;-3.210;2023-07-29T13:21:49;94083.28;;;38.90;10.28
80988;BME280;70452;39.386;-3.210;2023-07-29T13:24:18;94073.16;;;38.89;10.38
80988;BME280;70452;39.386;-3.210;2023-07-29T13:26:56;94077.94;;;39.01;9.99
80988;BME280;70452;39.386;-3.210;2023-07-29T13:29:28;94069.88;;;38.99;10.34
80988;BME280;70452;39.386;-3.210;2023-07-29T13:32:10;94072.44;;;39.07;10.08
80988;BME280;70452;39.386;-3.210;2023-07-29T13:34:39;94068.06;;;38.83;10.03
80988;BME280;70452;39.386;-3.210;2023-07-29T13:37:05;94066.06;;;37.90;10.89
80988;BME280;70452;39.386;-3.210;2023-07-29T13:39:37;94060.63;;;38.05;10.70
80988;BME280;70452;39.386;-3.210;2023-07-29T13:42:10;94060.16;;;38.69;10.25
80988;BME280;70452;39.386;-3.210;2023-07-29T13:44:54;94055.88;;;37.80;11.15
80988;BME280;70452;39.386;-3.210;2023-07-29T13:47:22;94054.56;;;38.25;10.70
80988;BME280;70452;39.386;-3.210;2023-07-29T13:49:48;94046.06;;;38.75;10.34
80988;BME280;70452;39.386;-3.210;2023-07-29T13:52:26;94049.28;;;38.86;10.26
80988;BME280;70452;39.386;-3.210;2023-07-29T13:54:54;94059.63;;;39.20;10.22
80988;BME280;70452;39.386;-3.210;2023-07-29T13:57:29;94058.59;;;38.77;10.28
80988;BME280;70452;39.386;-3.210;2023-07-29T14:00:01;94054.88;;;38.27;10.61
80988;BME280;70452;39.386;-3.210;2023-07-29T14:02:39;94056.63;;;38.24;10.87
80988;BME280;70452;39.386;-3.210;2023-07-29T14:05:08;94045.75;;;38.32;10.54
80988;BME280;70452;39.386;-3.210;2023-07-29T14:07:45;94043.69;;;38.73;10.42
80988;BME280;70452;39.386;-3.210;2023-07-29T14:10:25;94049.03;;;39.21;10.15
80988;BME280;70452;39.386;-3.210;2023-07-29T14:12:55;94042.13;;;38.72;10.47
80988;BME280;70452;39.386;-3.210;2023-07-29T14:15:32;94042.19;;;38.91;10.21
80988;BME280;70452;39.386;-3.210;2023-07-29T14:18:00;94044.94;;;39.22;10.07
80988;BME280;70452;39.386;-3.210;2023-07-29T14:20:30;94043.88;;;38.79;10.20
80988;BME280;70452;39.386;-3.210;2023-07-29T14:23:09;94035.59;;;39.31;9.50
80988;BME280;70452;39.386;-3.210;2023-07-29T14:25:38;94033.28;;;38.89;9.75
80988;BME280;70452;39.386;-3.210;2023-07-29T14:28:18;94031.63;;;39.47;9.61
80988;BME280;70452;39.386;-3.210;2023-07-29T14:30:53;94003.88;;;38.92;10.09
80988;BME280;70452;39.386;-3.210;2023-07-29T14:34:00;94027.13;;;38.90;10.09
80988;BME280;70452;39.386;-3.210;2023-07-29T14:36:38;94036.81;;;39.11;10.25
80988;BME280;70452;39.386;-3.210;2023-07-29T14:39:07;94031.75;;;39.06;9.78
80988;BME280;70452;39.386;-3.210;2023-07-29T14:41:43;94026.91;;;39.25;9.61